Plamondon, Canada
Current Conditions -  °F | °C
As of 12:00 PM on Friday 28 Nov 2014 (Local Time) from CYOD Reporting Station
Light Snow Light Snow  
Wind Chill: -22°   Ceiling: 1100
Heat Index: -2°   Visibility: 1.5mi
Dew Point: -9°   Wind: 15mph
Humidity: 71%   Direction: 70°ENE
Pressure: 29.81"   Gusts: NA
Location:  54.85°N, 112.34°W
Report Text: CYOD 281900Z 07013KT 1 1/2SM -SN DRSN VV011 M19/M23 A2981 RMKSN8 SLP149
Loading
Personal Weather Stations






























Interactive Weather Map New forecast layout! Learn more

10-Day Weather Forecast

Advertisements
Track Severe Weather on mobile